sensor_id;sensor_type;location;lat;lon;timestamp;pressure;altitude;pressure_sealevel;temperature;humidity
62072;BME280;48031;48.542;13.232;2023-04-30T00:02:42;97457.50;;;19.06;49.11
62072;BME280;48031;48.542;13.232;2023-04-30T00:06:44;97453.66;;;19.07;48.94
62072;BME280;48031;48.542;13.232;2023-04-30T00:10:46;97465.38;;;19.13;49.09
62072;BME280;48031;48.542;13.232;2023-04-30T00:14:48;97476.28;;;19.04;48.80
62072;BME280;48031;48.542;13.232;2023-04-30T00:18:50;97475.75;;;18.88;48.87
62072;BME280;48031;48.542;13.232;2023-04-30T00:22:52;97471.19;;;18.97;48.20
62072;BME280;48031;48.542;13.232;2023-04-30T00:26:53;97468.22;;;18.94;47.76
62072;BME280;48031;48.542;13.232;2023-04-30T00:30:55;97471.13;;;18.70;48.39
62072;BME280;48031;48.542;13.232;2023-04-30T00:34:58;97473.00;;;18.88;47.68
62072;BME280;48031;48.542;13.232;2023-04-30T00:39:00;97467.28;;;18.39;47.86
62072;BME280;48031;48.542;13.232;2023-04-30T00:43:01;97473.34;;;18.54;45.78
62072;BME280;48031;48.542;13.232;2023-04-30T00:47:04;97464.00;;;18.50;46.81
62072;BME280;48031;48.542;13.232;2023-04-30T00:51:06;97465.63;;;18.70;45.74
62072;BME280;48031;48.542;13.232;2023-04-30T00:55:09;97473.88;;;18.70;46.05
62072;BME280;48031;48.542;13.232;2023-04-30T00:59:12;97471.13;;;18.70;46.02
62072;BME280;48031;48.542;13.232;2023-04-30T01:03:15;97468.66;;;18.55;45.51
62072;BME280;48031;48.542;13.232;2023-04-30T01:07:17;97473.69;;;18.15;45.88
62072;BME280;48031;48.542;13.232;2023-04-30T01:16:18;97464.19;;;18.59;44.49
62072;BME280;48031;48.542;13.232;2023-04-30T01:20:25;97479.97;;;18.35;44.40
62072;BME280;48031;48.542;13.232;2023-04-30T01:25:10;97482.03;;;18.75;42.70
62072;BME280;48031;48.542;13.232;2023-04-30T01:29:17;97487.09;;;18.17;44.24
62072;BME280;48031;48.542;13.232;2023-04-30T01:33:19;97500.66;;;18.46;43.39
62072;BME280;48031;48.542;13.232;2023-04-30T01:37:35;97500.56;;;18.69;44.50
62072;BME280;48031;48.542;13.232;2023-04-30T01:50:41;97503.78;;;18.58;43.48
62072;BME280;48031;48.542;13.232;2023-04-30T01:54:50;97511.25;;;18.39;44.47
62072;BME280;48031;48.542;13.232;2023-04-30T01:58:53;97511.25;;;18.20;44.18
62072;BME280;48031;48.542;13.232;2023-04-30T02:02:56;97516.38;;;18.26;44.29
62072;BME280;48031;48.542;13.232;2023-04-30T02:06:58;97513.25;;;18.14;43.95
62072;BME280;48031;48.542;13.232;2023-04-30T02:11:00;97516.97;;;17.86;44.96
62072;BME280;48031;48.542;13.232;2023-04-30T02:15:03;97520.81;;;17.85;44.72
62072;BME280;48031;48.542;13.232;2023-04-30T02:19:05;97525.28;;;17.57;45.49
62072;BME280;48031;48.542;13.232;2023-04-30T02:23:06;97516.19;;;17.62;44.68
62072;BME280;48031;48.542;13.232;2023-04-30T02:27:10;97525.81;;;17.35;45.13
62072;BME280;48031;48.542;13.232;2023-04-30T02:31:12;97534.34;;;17.34;45.18
62072;BME280;48031;48.542;13.232;2023-04-30T02:35:14;97536.75;;;17.40;45.12
62072;BME280;48031;48.542;13.232;2023-04-30T02:39:16;97546.66;;;17.36;45.78
62072;BME280;48031;48.542;13.232;2023-04-30T02:43:17;97542.22;;;17.40;45.44
62072;BME280;48031;48.542;13.232;2023-04-30T02:47:19;97544.38;;;17.67;44.71
62072;BME280;48031;48.542;13.232;2023-04-30T02:51:21;97540.72;;;17.77;44.31
62072;BME280;48031;48.542;13.232;2023-04-30T02:55:23;97543.34;;;17.63;44.89
62072;BME280;48031;48.542;13.232;2023-04-30T02:59:25;97544.09;;;17.45;45.01
62072;BME280;48031;48.542;13.232;2023-04-30T03:03:27;97544.38;;;17.20;45.79
62072;BME280;48031;48.542;13.232;2023-04-30T03:07:29;97555.78;;;17.32;45.22
62072;BME280;48031;48.542;13.232;2023-04-30T03:11:31;97553.47;;;17.44;45.14
62072;BME280;48031;48.542;13.232;2023-04-30T03:15:33;97550.75;;;17.63;44.89
62072;BME280;48031;48.542;13.232;2023-04-30T03:19:35;97558.88;;;16.68;46.50
62072;BME280;48031;48.542;13.232;2023-04-30T03:23:37;97563.56;;;17.49;44.63
62072;BME280;48031;48.542;13.232;2023-04-30T03:27:39;97568.44;;;17.52;44.60
62072;BME280;48031;48.542;13.232;2023-04-30T03:31:41;97564.28;;;17.78;44.32
62072;BME280;48031;48.542;13.232;2023-04-30T03:35:43;97562.69;;;17.77;44.52
62072;BME280;48031;48.542;13.232;2023-04-30T03:39:45;97559.47;;;17.70;44.25
62072;BME280;48031;48.542;13.232;2023-04-30T03:43:47;97561.63;;;17.25;45.79
62072;BME280;48031;48.542;13.232;2023-04-30T03:47:50;97555.59;;;17.47;45.30
62072;BME280;48031;48.542;13.232;2023-04-30T03:51:53;97565.34;;;17.58;45.01
62072;BME280;48031;48.542;13.232;2023-04-30T03:55:56;97574.97;;;17.61;45.04
62072;BME280;48031;48.542;13.232;2023-04-30T03:59:58;97578.75;;;17.65;44.66
62072;BME280;48031;48.542;13.232;2023-04-30T04:04:00;97582.25;;;17.70;44.46
62072;BME280;48031;48.542;13.232;2023-04-30T04:08:04;97579.97;;;17.77;44.25
62072;BME280;48031;48.542;13.232;2023-04-30T04:12:06;97578.22;;;17.63;45.04
62072;BME280;48031;48.542;13.232;2023-04-30T04:16:10;97574.91;;;17.66;44.86
62072;BME280;48031;48.542;13.232;2023-04-30T04:20:12;97586.50;;;17.81;44.44
62072;BME280;48031;48.542;13.232;2023-04-30T04:24:15;97589.25;;;17.81;44.46
62072;BME280;48031;48.542;13.232;2023-04-30T04:28:17;97583.59;;;17.73;44.78
62072;BME280;48031;48.542;13.232;2023-04-30T04:32:19;97582.88;;;17.86;44.73
62072;BME280;48031;48.542;13.232;2023-04-30T04:36:24;97594.25;;;17.98;45.18
62072;BME280;48031;48.542;13.232;2023-04-30T04:40:29;97600.94;;;17.92;45.07
62072;BME280;48031;48.542;13.232;2023-04-30T04:44:32;97603.25;;;18.04;44.97
62072;BME280;48031;48.542;13.232;2023-04-30T04:48:35;97599.00;;;18.11;44.81
62072;BME280;48031;48.542;13.232;2023-04-30T04:52:37;97601.75;;;18.11;44.97
62072;BME280;48031;48.542;13.232;2023-04-30T04:56:40;97599.75;;;17.74;46.00
62072;BME280;48031;48.542;13.232;2023-04-30T05:00:43;97595.81;;;18.04;46.11
62072;BME280;48031;48.542;13.232;2023-04-30T05:04:45;97599.66;;;17.56;46.21
62072;BME280;48031;48.542;13.232;2023-04-30T05:08:47;97603.94;;;17.72;46.35
62072;BME280;48031;48.542;13.232;2023-04-30T05:12:49;97605.16;;;17.61;46.11
62072;BME280;48031;48.542;13.232;2023-04-30T05:16:51;97608.41;;;17.86;45.67
62072;BME280;48031;48.542;13.232;2023-04-30T05:20:53;97613.41;;;18.03;45.46
62072;BME280;48031;48.542;13.232;2023-04-30T05:24:55;97613.00;;;17.91;45.10
62072;BME280;48031;48.542;13.232;2023-04-30T05:28:56;97612.09;;;18.19;44.54
62072;BME280;48031;48.542;13.232;2023-04-30T05:32:58;97614.97;;;18.09;45.31
62072;BME280;48031;48.542;13.232;2023-04-30T05:37:00;97619.22;;;18.20;44.83
62072;BME280;48031;48.542;13.232;2023-04-30T05:41:02;97618.09;;;18.40;44.97
62072;BME280;48031;48.542;13.232;2023-04-30T05:45:05;97627.28;;;17.93;46.46
62072;BME280;48031;48.542;13.232;2023-04-30T05:49:08;97623.72;;;18.11;45.53
62072;BME280;48031;48.542;13.232;2023-04-30T05:53:09;97631.84;;;18.40;44.92
62072;BME280;48031;48.542;13.232;2023-04-30T05:57:11;97627.72;;;18.43;44.86
62072;BME280;48031;48.542;13.232;2023-04-30T06:01:14;97627.16;;;18.03;46.54
62072;BME280;48031;48.542;13.232;2023-04-30T06:05:16;97633.31;;;18.14;45.41
62072;BME280;48031;48.542;13.232;2023-04-30T06:09:18;97635.09;;;18.23;45.25
62072;BME280;48031;48.542;13.232;2023-04-30T06:13:21;97641.91;;;18.50;45.06
62072;BME280;48031;48.542;13.232;2023-04-30T06:17:23;97635.19;;;18.18;45.37
62072;BME280;48031;48.542;13.232;2023-04-30T06:21:25;97632.91;;;18.44;44.93
62072;BME280;48031;48.542;13.232;2023-04-30T06:25:27;97651.47;;;18.90;44.22
62072;BME280;48031;48.542;13.232;2023-04-30T06:29:31;97656.31;;;18.79;44.62
62072;BME280;48031;48.542;13.232;2023-04-30T06:33:32;97649.25;;;19.24;43.57
62072;BME280;48031;48.542;13.232;2023-04-30T06:37:34;97645.19;;;19.22;43.54
62072;BME280;48031;48.542;13.232;2023-04-30T06:41:38;97642.94;;;19.70;42.44
62072;BME280;48031;48.542;13.232;2023-04-30T06:45:43;97646.75;;;19.41;42.83
62072;BME280;48031;48.542;13.232;2023-04-30T06:49:45;97652.47;;;19.45;42.89
62072;BME280;48031;48.542;13.232;2023-04-30T06:53:47;97645.34;;;19.44;42.43
62072;BME280;48031;48.542;13.232;2023-04-30T06:57:48;97646.00;;;19.55;42.08
62072;BME280;48031;48.542;13.232;2023-04-30T07:01:50;97642.25;;;19.32;42.43
62072;BME280;48031;48.542;13.232;2023-04-30T07:05:52;97654.25;;;19.68;41.35
62072;BME280;48031;48.542;13.232;2023-04-30T07:09:54;97646.63;;;19.65;41.40
62072;BME280;48031;48.542;13.232;2023-04-30T07:13:57;97642.16;;;19.83;41.22
62072;BME280;48031;48.542;13.232;2023-04-30T07:17:58;97642.75;;;19.80;41.54
62072;BME280;48031;48.542;13.232;2023-04-30T07:22:00;97651.50;;;19.96;41.91
62072;BME280;48031;48.542;13.232;2023-04-30T07:26:02;97637.22;;;20.07;42.00
62072;BME280;48031;48.542;13.232;2023-04-30T07:30:05;97640.56;;;20.18;41.49
62072;BME280;48031;48.542;13.232;2023-04-30T07:34:07;97644.56;;;20.25;41.30
62072;BME280;48031;48.542;13.232;2023-04-30T07:38:09;97644.47;;;20.17;40.58
62072;BME280;48031;48.542;13.232;2023-04-30T07:42:11;97650.06;;;20.12;41.01
62072;BME280;48031;48.542;13.232;2023-04-30T07:46:12;97644.13;;;20.46;40.51
62072;BME280;48031;48.542;13.232;2023-04-30T07:50:14;97645.78;;;20.47;40.19
62072;BME280;48031;48.542;13.232;2023-04-30T07:54:17;97636.13;;;20.71;40.52
62072;BME280;48031;48.542;13.232;2023-04-30T07:58:19;97654.66;;;20.30;40.33
62072;BME280;48031;48.542;13.232;2023-04-30T08:02:21;97639.19;;;20.56;41.41
62072;BME280;48031;48.542;13.232;2023-04-30T08:06:23;97651.03;;;20.70;39.33
62072;BME280;48031;48.542;13.232;2023-04-30T08:10:24;97649.16;;;20.80;40.68
62072;BME280;48031;48.542;13.232;2023-04-30T08:14:26;97652.56;;;20.77;39.97
62072;BME280;48031;48.542;13.232;2023-04-30T08:18:29;97648.94;;;20.40;40.71
62072;BME280;48031;48.542;13.232;2023-04-30T08:22:32;97656.97;;;20.64;40.67
62072;BME280;48031;48.542;13.232;2023-04-30T08:26:34;97662.09;;;20.57;41.52
62072;BME280;48031;48.542;13.232;2023-04-30T08:30:35;97657.56;;;20.74;40.86
62072;BME280;48031;48.542;13.232;2023-04-30T08:34:37;97661.81;;;20.81;40.67
62072;BME280;48031;48.542;13.232;2023-04-30T08:38:41;97657.72;;;21.36;39.54
62072;BME280;48031;48.542;13.232;2023-04-30T08:42:55;97649.66;;;22.19;37.74
62072;BME280;48031;48.542;13.232;2023-04-30T08:47:02;97649.97;;;22.09;38.41
62072;BME280;48031;48.542;13.232;2023-04-30T08:51:04;97658.50;;;21.59;38.69
62072;BME280;48031;48.542;13.232;2023-04-30T08:55:06;97651.72;;;21.96;38.64
62072;BME280;48031;48.542;13.232;2023-04-30T08:59:09;97655.41;;;21.91;37.85
62072;BME280;48031;48.542;13.232;2023-04-30T09:03:11;97659.53;;;22.03;38.29
62072;BME280;48031;48.542;13.232;2023-04-30T09:07:14;97666.69;;;21.95;38.40
62072;BME280;48031;48.542;13.232;2023-04-30T09:15:29;97656.34;;;21.78;37.86
62072;BME280;48031;48.542;13.232;2023-04-30T09:19:31;97662.75;;;21.65;38.17
62072;BME280;48031;48.542;13.232;2023-04-30T09:23:33;97669.66;;;21.76;38.14
62072;BME280;48031;48.542;13.232;2023-04-30T09:27:35;97666.34;;;21.96;37.86
62072;BME280;48031;48.542;13.232;2023-04-30T09:31:38;97676.94;;;21.72;38.32
62072;BME280;48031;48.542;13.232;2023-04-30T09:35:40;97672.50;;;21.93;37.91
62072;BME280;48031;48.542;13.232;2023-04-30T09:39:53;97656.22;;;22.31;37.71
62072;BME280;48031;48.542;13.232;2023-04-30T09:43:56;97665.56;;;21.74;38.15
62072;BME280;48031;48.542;13.232;2023-04-30T09:47:59;97669.94;;;21.97;38.05
62072;BME280;48031;48.542;13.232;2023-04-30T09:52:17;97655.78;;;21.98;38.45
62072;BME280;48031;48.542;13.232;2023-04-30T09:56:23;97653.38;;;22.06;38.21
62072;BME280;48031;48.542;13.232;2023-04-30T10:00:26;97648.31;;;22.56;37.24
62072;BME280;48031;48.542;13.232;2023-04-30T10:04:41;97651.38;;;22.63;37.64
62072;BME280;48031;48.542;13.232;2023-04-30T10:08:50;97653.25;;;22.19;38.25
62072;BME280;48031;48.542;13.232;2023-04-30T10:12:59;97644.09;;;22.67;37.85
62072;BME280;48031;48.542;13.232;2023-04-30T10:17:10;97650.47;;;22.93;36.88
62072;BME280;48031;48.542;13.232;2023-04-30T10:21:14;97643.59;;;22.91;36.02
62072;BME280;48031;48.542;13.232;2023-04-30T10:25:18;97646.69;;;23.32;36.63
62072;BME280;48031;48.542;13.232;2023-04-30T10:29:20;97635.78;;;23.18;36.22
62072;BME280;48031;48.542;13.232;2023-04-30T10:33:33;97642.28;;;23.40;36.73
62072;BME280;48031;48.542;13.232;2023-04-30T10:37:52;97636.81;;;23.78;35.28
62072;BME280;48031;48.542;13.232;2023-04-30T10:42:05;97641.84;;;23.84;35.38
62072;BME280;48031;48.542;13.232;2023-04-30T10:46:07;97632.84;;;23.87;35.38
62072;BME280;48031;48.542;13.232;2023-04-30T10:50:10;97636.53;;;23.62;35.23
62072;BME280;48031;48.542;13.232;2023-04-30T10:54:14;97631.72;;;23.88;35.84
62072;BME280;48031;48.542;13.232;2023-04-30T10:58:31;97640.59;;;23.73;35.34
62072;BME280;48031;48.542;13.232;2023-04-30T11:10:58;97624.81;;;23.56;36.57
62072;BME280;48031;48.542;13.232;2023-04-30T11:15:15;97629.25;;;23.87;34.69
62072;BME280;48031;48.542;13.232;2023-04-30T11:19:21;97620.63;;;23.88;35.52
62072;BME280;48031;48.542;13.232;2023-04-30T11:23:25;97633.63;;;23.50;35.59
62072;BME280;48031;48.542;13.232;2023-04-30T11:27:43;97635.75;;;23.36;35.31
62072;BME280;48031;48.542;13.232;2023-04-30T11:31:48;97623.38;;;23.25;35.46
62072;BME280;48031;48.542;13.232;2023-04-30T11:35:51;97621.59;;;23.20;35.83
62072;BME280;48031;48.542;13.232;2023-04-30T11:39:55;97618.16;;;23.40;35.64
62072;BME280;48031;48.542;13.232;2023-04-30T11:43:57;97620.44;;;23.47;35.79
62072;BME280;48031;48.542;13.232;2023-04-30T11:47:59;97612.97;;;23.21;33.85
62072;BME280;48031;48.542;13.232;2023-04-30T11:52:01;97606.84;;;22.73;36.17
62072;BME280;48031;48.542;13.232;2023-04-30T11:56:03;97606.66;;;23.12;35.25
62072;BME280;48031;48.542;13.232;2023-04-30T12:00:28;97601.97;;;24.56;33.46
62072;BME280;48031;48.542;13.232;2023-04-30T12:04:30;97597.88;;;24.74;33.21
62072;BME280;48031;48.542;13.232;2023-04-30T12:08:33;97594.41;;;25.52;31.88
62072;BME280;48031;48.542;13.232;2023-04-30T12:12:35;97596.31;;;25.84;30.98
62072;BME280;48031;48.542;13.232;2023-04-30T12:16:50;97588.03;;;25.51;31.89
62072;BME280;48031;48.542;13.232;2023-04-30T12:20:52;97589.16;;;25.05;32.56
62072;BME280;48031;48.542;13.232;2023-04-30T12:24:55;97577.69;;;25.97;30.91
62072;BME280;48031;48.542;13.232;2023-04-30T12:28:57;97571.91;;;25.45;32.15
62072;BME280;48031;48.542;13.232;2023-04-30T12:32:59;97566.50;;;26.58;30.97
62072;BME280;48031;48.542;13.232;2023-04-30T12:37:01;97558.63;;;27.90;28.87
62072;BME280;48031;48.542;13.232;2023-04-30T12:41:03;97554.00;;;28.29;27.69
62072;BME280;48031;48.542;13.232;2023-04-30T12:45:06;97563.38;;;28.05;27.10
62072;BME280;48031;48.542;13.232;2023-04-30T12:49:08;97556.16;;;28.36;27.74
62072;BME280;48031;48.542;13.232;2023-04-30T12:53:11;97552.53;;;27.69;27.94
62072;BME280;48031;48.542;13.232;2023-04-30T12:57:13;97543.16;;;26.62;28.35
62072;BME280;48031;48.542;13.232;2023-04-30T13:01:20;97552.72;;;27.48;27.07
62072;BME280;48031;48.542;13.232;2023-04-30T13:05:23;97544.78;;;27.19;29.62
62072;BME280;48031;48.542;13.232;2023-04-30T13:09:25;97544.97;;;26.30;28.26
62072;BME280;48031;48.542;13.232;2023-04-30T13:13:27;97526.75;;;29.84;22.95
62072;BME280;48031;48.542;13.232;2023-04-30T13:17:28;97523.03;;;31.99;21.69
62072;BME280;48031;48.542;13.232;2023-04-30T13:21:30;97512.19;;;33.67;20.07
62072;BME280;48031;48.542;13.232;2023-04-30T13:25:33;97500.56;;;35.30;18.45
62072;BME280;48031;48.542;13.232;2023-04-30T13:29:35;97493.72;;;35.31;18.66
62072;BME280;48031;48.542;13.232;2023-04-30T13:33:37;97496.50;;;33.49;18.21
62072;BME280;48031;48.542;13.232;2023-04-30T13:37:39;97507.31;;;32.42;18.70
62072;BME280;48031;48.542;13.232;2023-04-30T13:41:41;97504.94;;;31.09;20.46
62072;BME280;48031;48.542;13.232;2023-04-30T13:45:43;97504.69;;;30.58;21.85
62072;BME280;48031;48.542;13.232;2023-04-30T13:49:44;97509.41;;;30.24;23.11
62072;BME280;48031;48.542;13.232;2023-04-30T13:53:46;97495.84;;;29.76;22.11
62072;BME280;48031;48.542;13.232;2023-04-30T13:57:48;97494.28;;;30.02;22.08
62072;BME280;48031;48.542;13.232;2023-04-30T14:01:50;97487.66;;;31.03;20.35
62072;BME280;48031;48.542;13.232;2023-04-30T14:05:53;97482.69;;;32.22;20.47
62072;BME280;48031;48.542;13.232;2023-04-30T14:09:55;97476.22;;;32.86;20.35
62072;BME280;48031;48.542;13.232;2023-04-30T14:13:57;97473.16;;;34.22;18.43
62072;BME280;48031;48.542;13.232;2023-04-30T14:18:01;97467.88;;;34.49;15.29
62072;BME280;48031;48.542;13.232;2023-04-30T14:22:03;97471.06;;;36.38;16.38
62072;BME280;48031;48.542;13.232;2023-04-30T14:26:04;97473.03;;;35.45;16.06
62072;BME280;48031;48.542;13.232;2023-04-30T14:30:07;97465.00;;;33.00;18.31
62072;BME280;48031;48.542;13.232;2023-04-30T14:34:09;97472.44;;;31.45;19.74
62072;BME280;48031;48.542;13.232;2023-04-30T14:38:11;97471.22;;;29.86;19.51
62072;BME280;48031;48.542;13.232;2023-04-30T14:42:13;97466.03;;;29.39;20.18
62072;BME280;48031;48.542;13.232;2023-04-30T14:46:15;97451.50;;;30.05;20.50
62072;BME280;48031;48.542;13.232;2023-04-30T14:50:17;97442.19;;;30.87;20.72
62072;BME280;48031;48.542;13.232;2023-04-30T14:54:19;97457.78;;;32.16;19.39
62072;BME280;48031;48.542;13.232;2023-04-30T14:58:21;97451.16;;;31.44;20.57
62072;BME280;48031;48.542;13.232;2023-04-30T15:02:23;97450.13;;;29.92;20.34
62072;BME280;48031;48.542;13.232;2023-04-30T15:06:25;97446.75;;;29.56;20.58
62072;BME280;48031;48.542;13.232;2023-04-30T15:10:27;97454.00;;;28.35;21.41
62072;BME280;48031;48.542;13.232;2023-04-30T15:14:29;97456.84;;;27.21;22.62
62072;BME280;48031;48.542;13.232;2023-04-30T15:18:31;97454.88;;;27.06;23.23
62072;BME280;48031;48.542;13.232;2023-04-30T15:22:33;97447.06;;;27.27;22.78
62072;BME280;48031;48.542;13.232;2023-04-30T15:26:35;97452.63;;;26.96;24.63
62072;BME280;48031;48.542;13.232;2023-04-30T15:30:37;97442.75;;;27.61;24.50
62072;BME280;48031;48.542;13.232;2023-04-30T15:34:39;97430.69;;;28.27;23.23
62072;BME280;48031;48.542;13.232;2023-04-30T15:38:40;97433.94;;;28.68;21.36
62072;BME280;48031;48.542;13.232;2023-04-30T15:42:42;97432.38;;;27.78;23.49
62072;BME280;48031;48.542;13.232;2023-04-30T15:46:45;97426.34;;;28.87;23.41
62072;BME280;48031;48.542;13.232;2023-04-30T15:50:47;97422.66;;;29.74;22.19
62072;BME280;48031;48.542;13.232;2023-04-30T15:54:50;97424.41;;;29.60;21.34
62072;BME280;48031;48.542;13.232;2023-04-30T15:58:52;97423.91;;;30.63;19.95
62072;BME280;48031;48.542;13.232;2023-04-30T16:02:54;97426.59;;;31.26;19.21
62072;BME280;48031;48.542;13.232;2023-04-30T16:06:56;97418.53;;;31.69;18.50
62072;BME280;48031;48.542;13.232;2023-04-30T16:10:58;97404.88;;;31.64;17.89
62072;BME280;48031;48.542;13.232;2023-04-30T16:15:00;97410.44;;;31.60;19.02
62072;BME280;48031;48.542;13.232;2023-04-30T16:19:02;97414.25;;;31.89;18.76
62072;BME280;48031;48.542;13.232;2023-04-30T16:23:04;97412.13;;;31.68;18.61
62072;BME280;48031;48.542;13.232;2023-04-30T16:27:06;97410.88;;;31.18;18.73
62072;BME280;48031;48.542;13.232;2023-04-30T16:31:08;97405.56;;;31.54;19.13
62072;BME280;48031;48.542;13.232;2023-04-30T16:35:12;97406.06;;;31.63;19.05
62072;BME280;48031;48.542;13.232;2023-04-30T16:39:14;97409.75;;;30.89;19.32
62072;BME280;48031;48.542;13.232;2023-04-30T16:43:17;97402.25;;;30.97;20.01
62072;BME280;48031;48.542;13.232;2023-04-30T16:47:19;97394.66;;;30.01;20.51
62072;BME280;48031;48.542;13.232;2023-04-30T16:51:21;97396.06;;;30.14;20.25
62072;BME280;48031;48.542;13.232;2023-04-30T16:55:23;97405.31;;;30.48;18.97
62072;BME280;48031;48.542;13.232;2023-04-30T16:59:25;97396.63;;;29.97;21.30
62072;BME280;48031;48.542;13.232;2023-04-30T17:03:27;97400.84;;;29.61;20.40
62072;BME280;48031;48.542;13.232;2023-04-30T17:07:31;97405.78;;;29.22;21.85
62072;BME280;48031;48.542;13.232;2023-04-30T17:11:33;97403.41;;;28.59;21.45
62072;BME280;48031;48.542;13.232;2023-04-30T17:15:34;97402.81;;;28.11;21.63
62072;BME280;48031;48.542;13.232;2023-04-30T17:19:36;97402.72;;;27.38;23.36
62072;BME280;48031;48.542;13.232;2023-04-30T17:23:38;97409.19;;;26.95;24.82
62072;BME280;48031;48.542;13.232;2023-04-30T17:27:40;97409.88;;;26.21;25.38
62072;BME280;48031;48.542;13.232;2023-04-30T17:31:42;97402.69;;;25.55;25.28
62072;BME280;48031;48.542;13.232;2023-04-30T17:35:44;97402.72;;;25.07;26.44
62072;BME280;48031;48.542;13.232;2023-04-30T17:39:46;97409.41;;;24.61;25.68
62072;BME280;48031;48.542;13.232;2023-04-30T17:43:49;97408.66;;;24.72;26.60
62072;BME280;48031;48.542;13.232;2023-04-30T17:47:52;97413.44;;;24.18;26.65
62072;BME280;48031;48.542;13.232;2023-04-30T17:51:54;97404.88;;;23.82;27.33
62072;BME280;48031;48.542;13.232;2023-04-30T17:55:55;97402.59;;;23.25;27.96
62072;BME280;48031;48.542;13.232;2023-04-30T17:59:59;97410.31;;;22.82;28.50
62072;BME280;48031;48.542;13.232;2023-04-30T18:04:05;97409.53;;;22.47;30.27
62072;BME280;48031;48.542;13.232;2023-04-30T18:08:07;97416.28;;;22.11;30.41
62072;BME280;48031;48.542;13.232;2023-04-30T18:12:09;97416.22;;;21.60;30.62
62072;BME280;48031;48.542;13.232;2023-04-30T18:16:12;97406.13;;;21.38;30.81
62072;BME280;48031;48.542;13.232;2023-04-30T18:20:14;97401.56;;;21.33;31.14
62072;BME280;48031;48.542;13.232;2023-04-30T18:24:16;97415.69;;;20.92;31.59
62072;BME280;48031;48.542;13.232;2023-04-30T18:28:19;97414.31;;;20.81;32.52
62072;BME280;48031;48.542;13.232;2023-04-30T18:32:21;97411.22;;;20.43;33.48
62072;BME280;48031;48.542;13.232;2023-04-30T18:36:23;97415.94;;;20.07;32.98
62072;BME280;48031;48.542;13.232;2023-04-30T18:40:25;97416.31;;;20.14;32.81
62072;BME280;48031;48.542;13.232;2023-04-30T18:44:28;97428.81;;;20.11;33.11
62072;BME280;48031;48.542;13.232;2023-04-30T18:48:30;97428.94;;;19.70;33.67
62072;BME280;48031;48.542;13.232;2023-04-30T18:52:32;97426.44;;;19.19;34.76
62072;BME280;48031;48.542;13.232;2023-04-30T18:56:34;97427.25;;;19.20;35.11
62072;BME280;48031;48.542;13.232;2023-04-30T19:00:40;97430.06;;;19.69;33.81
62072;BME280;48031;48.542;13.232;2023-04-30T19:04:42;97431.22;;;18.86;35.49
62072;BME280;48031;48.542;13.232;2023-04-30T19:08:44;97423.25;;;18.57;36.55
62072;BME280;48031;48.542;13.232;2023-04-30T19:12:47;97431.41;;;18.90;35.45
62072;BME280;48031;48.542;13.232;2023-04-30T19:16:49;97422.66;;;19.01;35.36
62072;BME280;48031;48.542;13.232;2023-04-30T19:20:58;97427.25;;;19.20;35.71
62072;BME280;48031;48.542;13.232;2023-04-30T19:25:01;97430.22;;;18.82;35.74
62072;BME280;48031;48.542;13.232;2023-04-30T19:29:03;97436.41;;;18.42;36.40
62072;BME280;48031;48.542;13.232;2023-04-30T19:33:05;97438.91;;;18.57;35.80
62072;BME280;48031;48.542;13.232;2023-04-30T19:37:06;97431.53;;;18.39;36.16
62072;BME280;48031;48.542;13.232;2023-04-30T19:41:08;97427.69;;;17.89;37.66
62072;BME280;48031;48.542;13.232;2023-04-30T19:45:10;97437.34;;;18.18;37.02
62072;BME280;48031;48.542;13.232;2023-04-30T19:49:12;97435.03;;;17.93;37.83
62072;BME280;48031;48.542;13.232;2023-04-30T19:53:15;97438.81;;;17.60;38.70
62072;BME280;48031;48.542;13.232;2023-04-30T19:57:17;97426.09;;;18.01;37.39
62072;BME280;48031;48.542;13.232;2023-04-30T20:01:19;97435.97;;;18.02;37.52
62072;BME280;48031;48.542;13.232;2023-04-30T20:05:21;97438.34;;;17.90;37.60
62072;BME280;48031;48.542;13.232;2023-04-30T20:09:23;97432.03;;;17.52;38.71
62072;BME280;48031;48.542;13.232;2023-04-30T20:13:25;97434.09;;;17.65;38.05
62072;BME280;48031;48.542;13.232;2023-04-30T20:17:27;97432.50;;;17.78;37.64
62072;BME280;48031;48.542;13.232;2023-04-30T20:21:29;97433.41;;;17.73;38.04
62072;BME280;48031;48.542;13.232;2023-04-30T20:25:32;97428.41;;;17.57;38.81
62072;BME280;48031;48.542;13.232;2023-04-30T20:29:34;97432.53;;;17.35;39.11
62072;BME280;48031;48.542;13.232;2023-04-30T20:33:36;97419.78;;;17.26;39.41
62072;BME280;48031;48.542;13.232;2023-04-30T20:37:38;97427.13;;;17.30;39.02
62072;BME280;48031;48.542;13.232;2023-04-30T20:41:40;97417.59;;;17.23;38.64
62072;BME280;48031;48.542;13.232;2023-04-30T20:45:43;97412.69;;;17.62;38.84
62072;BME280;48031;48.542;13.232;2023-04-30T20:49:45;97409.28;;;17.09;38.69
62072;BME280;48031;48.542;13.232;2023-04-30T20:53:46;97406.63;;;17.04;39.34
62072;BME280;48031;48.542;13.232;2023-04-30T20:57:48;97410.69;;;17.07;39.57
62072;BME280;48031;48.542;13.232;2023-04-30T21:01:51;97405.81;;;17.65;38.24
62072;BME280;48031;48.542;13.232;2023-04-30T21:05:53;97406.38;;;17.00;39.79
62072;BME280;48031;48.542;13.232;2023-04-30T21:09:55;97411.78;;;17.48;38.51
62072;BME280;48031;48.542;13.232;2023-04-30T21:13:57;97412.25;;;17.55;38.34
62072;BME280;48031;48.542;13.232;2023-04-30T21:17:59;97415.53;;;17.33;38.69
62072;BME280;48031;48.542;13.232;2023-04-30T21:22:01;97409.03;;;17.05;39.29
62072;BME280;48031;48.542;13.232;2023-04-30T21:26:03;97415.53;;;17.76;37.63
62072;BME280;48031;48.542;13.232;2023-04-30T21:30:05;97417.63;;;17.65;38.23
62072;BME280;48031;48.542;13.232;2023-04-30T21:34:07;97417.28;;;17.67;37.91
62072;BME280;48031;48.542;13.232;2023-04-30T21:38:08;97419.28;;;17.42;38.39